createdAt,value
2018-09-17T00:00:59.715Z,99.90
2018-09-17T00:02:03.864Z,99.90
2018-09-17T00:03:08.179Z,99.90
2018-09-17T00:04:12.874Z,99.90
2018-09-17T00:05:17.161Z,99.90
2018-09-17T00:06:21.763Z,99.90
2018-09-17T00:07:26.403Z,99.90
2018-09-17T00:08:30.745Z,99.90
2018-09-17T00:09:35.080Z,99.90
2018-09-17T00:10:39.399Z,99.90
2018-09-17T00:11:43.731Z,99.90
2018-09-17T00:12:48.153Z,99.90
2018-09-17T00:13:52.654Z,99.90
2018-09-17T00:14:57.273Z,99.90
2018-09-17T00:16:01.712Z,99.90
2018-09-17T00:17:05.824Z,99.90
2018-09-17T00:18:10.283Z,99.90
2018-09-17T00:19:14.424Z,99.90
2018-09-17T00:20:19.016Z,99.90
2018-09-17T00:21:23.552Z,99.90
2018-09-17T00:22:27.646Z,99.90
2018-09-17T00:23:32.001Z,99.90
2018-09-17T00:24:36.452Z,99.90
2018-09-17T00:25:41.164Z,99.90
2018-09-17T00:26:45.536Z,99.90
2018-09-17T00:27:49.795Z,99.90
2018-09-17T00:28:53.993Z,99.90
2018-09-17T00:29:58.371Z,99.90
2018-09-17T00:31:02.768Z,99.90
2018-09-17T00:32:07.826Z,99.90
2018-09-17T00:33:12.530Z,99.90
2018-09-17T00:34:16.739Z,99.90
2018-09-17T00:36:22.916Z,99.90
2018-09-17T00:37:27.247Z,99.90
2018-09-17T00:38:31.450Z,99.90
2018-09-17T00:39:35.951Z,99.90
2018-09-17T00:40:40.389Z,99.90
2018-09-17T00:41:44.794Z,99.90
2018-09-17T00:42:49.118Z,99.90
2018-09-17T00:43:53.463Z,99.90
2018-09-17T00:44:57.893Z,99.90
2018-09-17T00:46:02.411Z,99.90
2018-09-17T00:47:06.958Z,99.90
2018-09-17T00:48:11.348Z,99.90
2018-09-17T00:49:15.597Z,99.90
2018-09-17T00:50:19.856Z,99.90
2018-09-17T00:51:24.304Z,99.90
2018-09-17T00:52:28.662Z,99.90
2018-09-17T00:53:33.049Z,99.90
2018-09-17T00:54:37.460Z,99.90
2018-09-17T00:55:41.846Z,99.90
2018-09-17T00:56:46.315Z,99.90
2018-09-17T00:57:50.520Z,99.90
2018-09-17T00:58:54.844Z,99.90
2018-09-17T00:59:59.254Z,99.90
2018-09-17T01:01:03.551Z,99.90
2018-09-17T01:02:08.109Z,99.90
2018-09-17T01:03:12.686Z,99.90
2018-09-17T01:04:17.114Z,99.90
2018-09-17T01:05:21.312Z,99.90
2018-09-17T01:06:25.637Z,99.90
2018-09-17T01:07:29.988Z,99.90
2018-09-17T01:08:34.387Z,99.90
2018-09-17T01:09:41.757Z,99.90
2018-09-17T01:10:45.846Z,99.90
2018-09-17T01:11:50.441Z,99.90
2018-09-17T01:12:54.586Z,99.90
2018-09-17T01:13:58.957Z,99.90
2018-09-17T01:15:03.235Z,99.90
2018-09-17T01:16:07.569Z,99.90
2018-09-17T01:17:12.122Z,99.90
2018-09-17T01:18:16.358Z,99.90
2018-09-17T01:19:20.489Z,99.90
2018-09-17T01:20:24.769Z,99.90
2018-09-17T01:21:29.080Z,99.90
2018-09-17T01:23:08.140Z,99.90
2018-09-17T01:24:12.512Z,99.90
2018-09-17T01:25:16.689Z,99.90
2018-09-17T01:26:21.169Z,99.90
2018-09-17T01:27:25.738Z,99.90
2018-09-17T01:28:30.168Z,99.90
2018-09-17T01:29:34.512Z,99.90
2018-09-17T01:30:38.803Z,99.90
2018-09-17T01:31:43.316Z,99.90
2018-09-17T01:32:47.790Z,99.90
2018-09-17T01:33:52.008Z,99.90
2018-09-17T01:34:56.237Z,99.90
2018-09-17T01:36:00.579Z,99.90
2018-09-17T01:37:04.728Z,99.90
2018-09-17T01:38:09.082Z,99.90
2018-09-17T01:39:13.365Z,99.90
2018-09-17T01:40:17.605Z,99.90
2018-09-17T01:41:21.916Z,99.90
2018-09-17T01:42:26.164Z,99.90
2018-09-17T01:43:30.478Z,99.90
2018-09-17T01:44:34.664Z,99.90
2018-09-17T01:45:39.197Z,99.90
2018-09-17T01:46:43.965Z,99.90
2018-09-17T01:47:48.345Z,99.90
2018-09-17T01:48:52.584Z,99.90
2018-09-17T01:49:57.047Z,99.90
2018-09-17T01:51:01.654Z,99.90
2018-09-17T01:52:05.996Z,99.90
2018-09-17T01:53:10.199Z,99.90
2018-09-17T01:54:14.553Z,99.90
2018-09-17T01:55:18.826Z,99.90
2018-09-17T01:56:23.244Z,99.90
2018-09-17T01:57:27.638Z,99.90
2018-09-17T01:58:31.859Z,99.90
2018-09-17T01:59:36.308Z,99.90
2018-09-17T02:00:40.704Z,99.90
2018-09-17T02:01:45.544Z,99.90
2018-09-17T02:02:49.689Z,99.90
2018-09-17T02:03:53.954Z,99.90
2018-09-17T02:04:58.403Z,99.90
2018-09-17T02:06:02.794Z,99.90
2018-09-17T02:07:07.634Z,99.90
2018-09-17T02:08:12.137Z,99.90
2018-09-17T02:09:16.434Z,99.90
2018-09-17T02:10:20.611Z,99.90
2018-09-17T02:11:25.015Z,99.90
2018-09-17T02:12:29.635Z,99.90
2018-09-17T02:13:34.226Z,99.90
2018-09-17T02:14:38.620Z,99.90
2018-09-17T02:15:43.209Z,99.90
2018-09-17T02:16:47.707Z,99.90
2018-09-17T02:17:51.962Z,99.90
2018-09-17T02:18:56.504Z,99.90
2018-09-17T02:20:00.763Z,99.90
2018-09-17T02:21:05.406Z,99.90
2018-09-17T02:22:10.305Z,99.90
2018-09-17T02:23:14.427Z,99.90
2018-09-17T02:24:18.715Z,99.90
2018-09-17T02:25:23.146Z,99.90
2018-09-17T02:26:27.522Z,99.90
2018-09-17T02:27:32.145Z,99.90
2018-09-17T02:28:36.835Z,99.90
2018-09-17T02:29:41.531Z,99.90
2018-09-17T02:30:45.913Z,99.90
2018-09-17T02:31:50.061Z,99.90
2018-09-17T02:32:54.412Z,99.90
2018-09-17T02:33:59.121Z,99.90
2018-09-17T02:35:03.484Z,99.90
2018-09-17T02:36:08.077Z,99.90
2018-09-17T02:37:12.631Z,99.90
2018-09-17T02:38:17.793Z,99.90
2018-09-17T02:39:22.540Z,99.90
2018-09-17T02:40:26.936Z,99.90
2018-09-17T02:41:31.323Z,99.90
2018-09-17T02:42:35.766Z,99.90
2018-09-17T02:43:40.051Z,99.90
2018-09-17T02:44:44.840Z,99.90
2018-09-17T02:45:49.098Z,99.90
2018-09-17T02:46:53.430Z,99.90
2018-09-17T02:47:57.713Z,99.90
2018-09-17T02:49:01.989Z,99.90
2018-09-17T02:50:06.559Z,99.90
2018-09-17T02:51:10.985Z,99.90
2018-09-17T02:52:15.363Z,99.90
2018-09-17T02:53:19.816Z,99.90
2018-09-17T02:54:24.422Z,99.90
2018-09-17T02:55:28.522Z,99.90
2018-09-17T02:56:32.905Z,99.90
2018-09-17T02:57:38.166Z,99.90
2018-09-17T02:58:42.869Z,99.90
2018-09-17T02:59:47.483Z,99.90
2018-09-17T03:00:52.133Z,99.90
2018-09-17T03:01:56.676Z,99.90
2018-09-17T03:03:01.171Z,99.90
2018-09-17T03:04:05.610Z,99.90
2018-09-17T03:05:09.890Z,99.90
2018-09-17T03:06:14.167Z,99.90
2018-09-17T03:07:18.419Z,99.90
2018-09-17T03:08:22.727Z,99.90
2018-09-17T03:10:29.600Z,99.90
2018-09-17T03:11:33.976Z,99.90
2018-09-17T03:12:38.617Z,99.90
2018-09-17T03:13:43.181Z,99.90
2018-09-17T03:14:47.712Z,99.90
2018-09-17T03:15:55.706Z,99.90
2018-09-17T03:17:09.401Z,99.90
2018-09-17T03:18:13.546Z,99.90
2018-09-17T03:19:18.394Z,99.90
2018-09-17T03:20:22.635Z,99.90
2018-09-17T03:21:27.222Z,99.90
2018-09-17T03:22:31.483Z,99.90
2018-09-17T03:23:38.085Z,99.90
2018-09-17T03:24:42.781Z,99.90
2018-09-17T03:25:47.177Z,99.90
2018-09-17T03:26:51.427Z,99.90
2018-09-17T03:27:55.771Z,99.90
2018-09-17T03:29:00.180Z,99.90
2018-09-17T03:30:04.680Z,99.90
2018-09-17T03:31:08.960Z,99.90
2018-09-17T03:32:13.336Z,99.90
2018-09-17T03:33:17.594Z,99.90
2018-09-17T03:34:22.136Z,99.90
2018-09-17T03:35:26.804Z,99.90
2018-09-17T03:36:31.229Z,99.90
2018-09-17T03:37:35.748Z,99.90
2018-09-17T03:38:43.917Z,99.90
2018-09-17T03:39:48.326Z,99.90
2018-09-17T03:40:52.612Z,99.90
2018-09-17T03:41:56.867Z,99.90
2018-09-17T03:43:01.227Z,99.90
2018-09-17T03:44:05.538Z,99.90
2018-09-17T03:45:09.850Z,99.90
2018-09-17T03:46:14.353Z,99.90
2018-09-17T03:47:18.860Z,99.90
2018-09-17T03:48:23.027Z,99.90
2018-09-17T03:49:27.238Z,99.90
2018-09-17T03:50:31.703Z,99.90
2018-09-17T03:51:36.236Z,99.90
2018-09-17T03:52:40.698Z,99.90
2018-09-17T03:53:44.963Z,99.90
2018-09-17T03:54:49.417Z,99.90
2018-09-17T03:55:53.749Z,99.90
2018-09-17T03:56:57.859Z,99.90
2018-09-17T03:58:01.964Z,99.90
2018-09-17T03:59:58.139Z,99.90
2018-09-17T04:01:43.639Z,99.90
2018-09-17T04:02:48.001Z,99.90
2018-09-17T04:04:52.949Z,99.90
2018-09-17T04:05:57.341Z,99.90
2018-09-17T04:07:01.731Z,99.90
2018-09-17T04:08:05.897Z,99.90
2018-09-17T04:09:10.220Z,99.90
2018-09-17T04:10:14.255Z,99.90
2018-09-17T04:11:18.610Z,99.90
2018-09-17T04:12:22.875Z,99.90
2018-09-17T04:13:27.064Z,99.90
2018-09-17T04:14:31.533Z,99.90
2018-09-17T04:15:35.946Z,99.90
2018-09-17T04:16:40.043Z,99.90
2018-09-17T04:17:44.599Z,99.90
2018-09-17T04:18:48.999Z,99.90
2018-09-17T04:19:53.376Z,99.90
2018-09-17T04:20:57.643Z,99.90
2018-09-17T04:22:02.030Z,99.90
2018-09-17T04:23:06.425Z,99.90
2018-09-17T04:24:10.717Z,99.90
2018-09-17T04:25:15.860Z,99.90
2018-09-17T04:26:20.172Z,99.90
2018-09-17T04:27:24.461Z,99.90
2018-09-17T04:28:28.766Z,99.90
2018-09-17T04:29:33.329Z,99.90
2018-09-17T04:30:37.968Z,99.90
2018-09-17T04:31:42.420Z,99.90
2018-09-17T04:32:46.739Z,99.90
2018-09-17T04:33:50.944Z,99.90
2018-09-17T04:34:55.155Z,99.90
2018-09-17T04:35:59.833Z,99.90
2018-09-17T04:37:04.385Z,99.90
2018-09-17T04:38:08.963Z,99.90
2018-09-17T04:39:14.989Z,99.90
2018-09-17T04:40:19.536Z,99.90
2018-09-17T04:41:23.789Z,99.90
2018-09-17T04:42:28.226Z,99.90
2018-09-17T04:43:32.490Z,99.90
2018-09-17T04:44:37.065Z,99.90
2018-09-17T04:45:41.719Z,99.90
2018-09-17T04:46:45.890Z,99.90
2018-09-17T04:47:50.325Z,99.90
2018-09-17T04:48:54.629Z,99.90
2018-09-17T04:49:58.882Z,99.90
2018-09-17T04:51:03.315Z,99.90
2018-09-17T04:52:07.540Z,99.90
2018-09-17T04:53:11.664Z,99.90
2018-09-17T04:54:15.981Z,99.90
2018-09-17T04:55:20.334Z,99.90
2018-09-17T04:56:24.560Z,99.90
2018-09-17T04:57:29.014Z,99.90
2018-09-17T04:58:33.291Z,99.90
2018-09-17T04:59:37.828Z,99.90
2018-09-17T05:00:42.296Z,99.90
2018-09-17T05:01:46.479Z,99.90
2018-09-17T05:02:50.708Z,99.90
2018-09-17T05:03:55.029Z,99.90
2018-09-17T05:04:59.347Z,99.90
2018-09-17T05:06:03.844Z,99.90
2018-09-17T05:07:08.109Z,99.90
2018-09-17T05:08:12.204Z,99.90
2018-09-17T05:09:16.566Z,99.90
2018-09-17T05:10:20.741Z,99.90
2018-09-17T05:11:25.267Z,99.90
2018-09-17T05:12:29.444Z,99.90
2018-09-17T05:13:33.919Z,99.90
2018-09-17T05:14:38.516Z,99.90
2018-09-17T05:15:42.743Z,99.90
2018-09-17T05:16:46.983Z,99.90
2018-09-17T05:17:51.412Z,99.90
2018-09-17T05:18:55.518Z,99.90
2018-09-17T05:19:59.906Z,99.90
2018-09-17T05:21:04.309Z,99.90
2018-09-17T05:22:08.799Z,99.90
2018-09-17T05:23:13.237Z,99.90
2018-09-17T05:24:17.548Z,99.90
2018-09-17T05:25:21.694Z,99.90
2018-09-17T05:26:25.946Z,99.90
2018-09-17T05:27:30.209Z,99.90
2018-09-17T05:28:34.575Z,99.90
2018-09-17T05:29:38.992Z,99.90
2018-09-17T05:30:43.296Z,99.90
2018-09-17T05:31:47.674Z,99.90
2018-09-17T05:32:52.005Z,99.90
2018-09-17T05:33:56.173Z,99.90
2018-09-17T05:35:00.563Z,99.90
2018-09-17T05:36:04.996Z,99.90
2018-09-17T05:37:09.228Z,99.90
2018-09-17T05:38:13.866Z,99.90
2018-09-17T05:39:18.494Z,99.90
2018-09-17T05:40:22.959Z,99.90
2018-09-17T05:41:27.499Z,99.90
2018-09-17T05:42:32.206Z,99.90
2018-09-17T05:43:36.587Z,99.90
2018-09-17T05:44:41.148Z,99.90
2018-09-17T05:45:45.752Z,99.90
2018-09-17T05:46:50.189Z,99.90
2018-09-17T05:47:54.622Z,99.90
2018-09-17T05:48:59.319Z,99.90
2018-09-17T05:50:03.550Z,99.90
2018-09-17T05:51:07.911Z,99.90
2018-09-17T05:52:12.249Z,99.90
2018-09-17T05:53:16.680Z,99.90
2018-09-17T05:54:21.013Z,99.90
2018-09-17T05:55:25.603Z,99.90
2018-09-17T05:56:29.872Z,99.90
2018-09-17T05:57:34.162Z,99.90
2018-09-17T05:58:38.560Z,99.90
2018-09-17T05:59:43.161Z,99.90
2018-09-17T06:00:47.593Z,99.90
2018-09-17T06:01:52.008Z,99.90
2018-09-17T06:02:57.393Z,99.90
2018-09-17T06:04:01.844Z,99.90
2018-09-17T06:05:06.299Z,99.90
2018-09-17T06:06:10.645Z,99.90
2018-09-17T06:07:15.221Z,99.90
2018-09-17T06:08:19.584Z,99.90
2018-09-17T06:09:24.692Z,99.90
2018-09-17T06:10:28.869Z,99.90
2018-09-17T06:11:33.288Z,99.90
2018-09-17T06:12:37.744Z,99.90
2018-09-17T06:13:41.926Z,99.90
2018-09-17T06:14:46.136Z,99.90
2018-09-17T06:15:50.256Z,99.90
2018-09-17T06:16:54.359Z,99.90
2018-09-17T06:17:58.706Z,99.90
2018-09-17T06:19:02.930Z,99.90
2018-09-17T06:20:07.276Z,99.90
2018-09-17T06:21:11.637Z,99.90
2018-09-17T06:22:15.887Z,99.90
2018-09-17T06:23:20.351Z,99.90
2018-09-17T06:24:24.551Z,99.90
2018-09-17T06:25:29.054Z,99.90
2018-09-17T06:26:33.852Z,99.90
2018-09-17T06:27:38.167Z,99.90
2018-09-17T06:28:42.313Z,99.90
2018-09-17T06:29:46.699Z,99.90
2018-09-17T06:30:51.180Z,99.90
2018-09-17T06:31:55.550Z,99.90
2018-09-17T06:33:00.133Z,99.90
2018-09-17T06:34:05.318Z,99.90
2018-09-17T06:35:09.550Z,99.90
2018-09-17T06:36:14.067Z,99.90
2018-09-17T06:37:18.649Z,99.90
2018-09-17T06:38:22.761Z,99.90
2018-09-17T06:39:27.137Z,99.90
2018-09-17T06:40:31.672Z,99.90
2018-09-17T06:41:35.941Z,99.90
2018-09-17T06:42:40.226Z,99.90
2018-09-17T06:43:44.753Z,99.90
2018-09-17T06:44:49.383Z,99.90
2018-09-17T06:45:53.671Z,99.90
2018-09-17T06:46:58.349Z,99.90
2018-09-17T06:48:02.801Z,99.90
2018-09-17T06:49:07.153Z,99.90
2018-09-17T06:50:11.962Z,99.90
2018-09-17T06:51:16.448Z,99.90
2018-09-17T06:52:20.690Z,99.90
2018-09-17T06:53:25.057Z,99.90
2018-09-17T06:54:29.158Z,99.90
2018-09-17T06:55:33.765Z,99.90
2018-09-17T06:56:38.108Z,99.90
2018-09-17T06:57:42.427Z,99.90
2018-09-17T06:58:47.352Z,99.90
2018-09-17T06:59:51.833Z,99.90
2018-09-17T07:00:56.357Z,99.90
2018-09-17T07:02:00.644Z,99.90
2018-09-17T07:03:05.158Z,99.90
2018-09-17T07:04:09.505Z,99.90
2018-09-17T07:05:13.915Z,99.90
2018-09-17T07:06:18.406Z,99.90
2018-09-17T07:07:22.818Z,99.90
2018-09-17T07:08:27.093Z,99.90
2018-09-17T07:09:31.664Z,99.90
2018-09-17T07:10:35.969Z,99.90
2018-09-17T07:11:40.274Z,99.90
2018-09-17T07:12:44.393Z,99.90
2018-09-17T07:13:48.826Z,99.90
2018-09-17T07:14:53.063Z,99.90
2018-09-17T07:15:57.712Z,99.90
2018-09-17T07:17:02.019Z,99.90
2018-09-17T07:18:06.405Z,99.90
2018-09-17T07:19:10.839Z,99.90
2018-09-17T07:20:14.968Z,99.90
2018-09-17T07:21:19.349Z,99.90
2018-09-17T07:22:23.749Z,99.90
2018-09-17T07:23:28.178Z,99.90
2018-09-17T07:24:32.556Z,99.90
2018-09-17T07:25:36.802Z,99.90
2018-09-17T07:26:41.291Z,99.90
2018-09-17T07:27:45.711Z,99.90
2018-09-17T07:28:50.060Z,99.90
2018-09-17T07:29:54.409Z,99.90
2018-09-17T07:30:58.990Z,99.90
2018-09-17T07:32:03.313Z,99.90
2018-09-17T07:33:07.867Z,99.90
2018-09-17T07:34:12.109Z,99.90
2018-09-17T07:35:16.490Z,99.90
2018-09-17T07:36:21.006Z,99.90
2018-09-17T07:37:25.368Z,99.90
2018-09-17T07:38:29.674Z,99.90
2018-09-17T07:39:33.804Z,99.90
2018-09-17T07:40:38.012Z,99.90
2018-09-17T07:41:42.094Z,99.90
2018-09-17T07:42:46.218Z,99.90
2018-09-17T07:43:50.740Z,99.90
2018-09-17T07:44:55.277Z,99.90
2018-09-17T07:45:59.321Z,99.90
2018-09-17T07:47:03.480Z,99.90
2018-09-17T07:48:07.993Z,99.90
2018-09-17T07:49:12.400Z,99.90
2018-09-17T07:50:16.693Z,99.90
2018-09-17T07:51:21.029Z,99.90
2018-09-17T07:52:25.468Z,99.90
2018-09-17T07:53:29.646Z,99.90
2018-09-17T07:54:33.829Z,99.90
2018-09-17T07:55:38.208Z,99.90
2018-09-17T07:56:42.600Z,99.90
2018-09-17T07:57:46.787Z,99.90
2018-09-17T07:58:51.264Z,99.90
2018-09-17T07:59:55.734Z,99.90
2018-09-17T08:01:00.281Z,99.90
2018-09-17T08:02:04.695Z,99.90
2018-09-17T08:03:08.998Z,99.90
2018-09-17T08:04:13.246Z,99.90
2018-09-17T08:05:17.595Z,99.90
2018-09-17T08:06:22.281Z,99.90
2018-09-17T08:07:26.625Z,99.90
2018-09-17T08:08:31.101Z,99.90
2018-09-17T08:09:35.430Z,99.90
2018-09-17T08:10:39.758Z,99.90
2018-09-17T08:11:44.353Z,99.90
2018-09-17T08:12:49.219Z,99.90
2018-09-17T08:13:53.424Z,99.90
2018-09-17T08:14:57.690Z,99.90
2018-09-17T08:16:01.770Z,99.90
2018-09-17T08:17:06.212Z,99.90
2018-09-17T08:18:10.528Z,99.90
2018-09-17T08:19:14.737Z,99.90
2018-09-17T08:20:18.932Z,99.90
2018-09-17T08:21:23.162Z,99.90
2018-09-17T08:22:27.269Z,99.90
2018-09-17T08:23:31.453Z,99.90
2018-09-17T08:24:35.882Z,99.90
2018-09-17T08:25:40.031Z,99.90
2018-09-17T08:26:44.135Z,99.90
2018-09-17T08:27:48.647Z,99.90
2018-09-17T08:28:53.399Z,99.90
2018-09-17T08:29:58.027Z,99.90
2018-09-17T08:31:02.370Z,99.90
2018-09-17T08:32:06.799Z,99.90
2018-09-17T08:33:11.106Z,99.90
2018-09-17T08:34:15.774Z,99.90
2018-09-17T08:35:20.068Z,99.90
2018-09-17T08:36:24.541Z,99.90
2018-09-17T08:37:29.046Z,99.90
2018-09-17T08:38:33.345Z,99.90
2018-09-17T08:39:37.732Z,99.90
2018-09-17T08:40:42.010Z,99.90
2018-09-17T08:41:46.407Z,99.90
2018-09-17T08:42:50.827Z,99.90
2018-09-17T08:43:54.998Z,99.90
2018-09-17T08:44:59.326Z,99.90
2018-09-17T08:46:03.708Z,99.90
2018-09-17T08:47:08.043Z,99.90
2018-09-17T08:48:12.319Z,99.90
2018-09-17T08:49:16.814Z,99.90
2018-09-17T08:50:21.366Z,99.90
2018-09-17T08:51:25.964Z,99.90
2018-09-17T08:52:30.242Z,99.90
2018-09-17T08:53:34.517Z,99.90
2018-09-17T08:54:44.145Z,99.90
2018-09-17T08:55:53.652Z,99.90
2018-09-17T08:56:59.424Z,99.90
2018-09-17T08:58:09.182Z,99.90
2018-09-17T08:59:18.725Z,99.90
2018-09-17T09:00:27.097Z,99.90
2018-09-17T09:01:36.626Z,99.90
2018-09-17T09:02:46.568Z,99.90
2018-09-17T09:04:56.140Z,99.90
2018-09-17T09:06:06.056Z,99.90
2018-09-17T09:07:15.445Z,99.90
2018-09-17T09:08:19.870Z,99.90
2018-09-17T09:09:24.322Z,99.90
2018-09-17T09:10:33.873Z,99.90
2018-09-17T09:11:43.710Z,99.90
2018-09-17T09:12:53.383Z,99.90
2018-09-17T09:14:02.023Z,99.90
2018-09-17T09:15:11.385Z,99.90
2018-09-17T09:16:15.765Z,99.90
2018-09-17T09:17:20.178Z,99.90
2018-09-17T09:18:24.774Z,99.90
2018-09-17T09:19:29.072Z,99.90
2018-09-17T09:20:33.821Z,99.90
2018-09-17T09:21:38.249Z,99.90
2018-09-17T09:22:42.413Z,99.90
2018-09-17T09:23:46.618Z,99.90
2018-09-17T09:24:51.052Z,99.90
2018-09-17T09:25:55.257Z,99.90
2018-09-17T09:26:59.728Z,99.90
2018-09-17T09:28:03.776Z,99.90
2018-09-17T09:29:08.012Z,99.90
2018-09-17T09:30:12.370Z,99.90
2018-09-17T09:31:16.812Z,99.90
2018-09-17T09:32:21.009Z,99.90
2018-09-17T09:33:25.271Z,99.90
2018-09-17T09:34:29.361Z,99.90
2018-09-17T09:35:33.570Z,99.90
2018-09-17T09:36:37.698Z,99.90
2018-09-17T09:37:41.855Z,99.80
2018-09-17T09:38:46.221Z,99.70
2018-09-17T09:39:50.688Z,99.70
2018-09-17T09:40:55.162Z,99.80
2018-09-17T09:41:59.428Z,99.90
2018-09-17T09:43:03.901Z,99.80
2018-09-17T09:44:08.275Z,99.90
2018-09-17T09:45:12.971Z,99.90
2018-09-17T09:46:17.247Z,99.70
2018-09-17T09:47:21.502Z,99.60
2018-09-17T09:48:25.934Z,99.70
2018-09-17T09:49:30.339Z,99.70
2018-09-17T09:50:34.879Z,99.60
2018-09-17T09:51:39.358Z,99.80
2018-09-17T09:52:43.579Z,99.90
2018-09-17T09:53:48.081Z,99.90
2018-09-17T09:54:52.780Z,99.90
2018-09-17T09:55:57.067Z,99.90
2018-09-17T09:57:01.369Z,99.30
2018-09-17T09:58:05.905Z,99.00
2018-09-17T09:59:10.522Z,99.20
2018-09-17T10:00:20.389Z,99.10
2018-09-17T10:01:26.606Z,99.10
2018-09-17T10:02:36.267Z,99.00
2018-09-17T10:03:42.617Z,98.90
2018-09-17T10:04:46.828Z,99.00
2018-09-17T10:05:51.242Z,98.50
2018-09-17T10:06:55.440Z,98.60
2018-09-17T10:07:59.621Z,98.80
2018-09-17T10:09:09.108Z,98.90
2018-09-17T10:10:18.910Z,98.60
2018-09-17T10:11:28.677Z,98.50
2018-09-17T10:12:38.311Z,98.40
2018-09-17T10:13:47.853Z,98.40
2018-09-17T10:14:57.296Z,98.40
2018-09-17T10:16:05.634Z,98.50
2018-09-17T10:17:15.412Z,98.60
2018-09-17T10:18:25.132Z,98.70
2018-09-17T10:19:29.579Z,98.80
2018-09-17T10:20:33.988Z,98.80
2018-09-17T10:21:38.445Z,98.70
2018-09-17T10:22:42.809Z,98.20
2018-09-17T10:23:47.479Z,98.10
2018-09-17T10:24:51.940Z,98.20
2018-09-17T10:25:56.310Z,98.20
2018-09-17T10:27:00.610Z,98.10
2018-09-17T10:28:04.823Z,97.90
2018-09-17T10:29:09.637Z,97.90
2018-09-17T10:30:14.043Z,97.80
2018-09-17T10:31:18.440Z,98.00
2018-09-17T10:32:22.870Z,97.80
2018-09-17T10:33:27.091Z,97.70
2018-09-17T10:34:31.181Z,97.60
2018-09-17T10:35:35.354Z,97.50
2018-09-17T10:36:39.790Z,97.40
2018-09-17T10:37:44.106Z,97.80
2018-09-17T10:38:48.469Z,97.80
2018-09-17T10:39:52.869Z,97.80
2018-09-17T10:40:57.126Z,98.10
2018-09-17T10:42:01.596Z,98.40
2018-09-17T10:43:06.130Z,98.60
2018-09-17T10:44:10.608Z,98.30
2018-09-17T10:45:15.281Z,98.50
2018-09-17T10:46:19.787Z,98.40
2018-09-17T10:47:24.175Z,98.00
2018-09-17T10:48:28.427Z,97.80
2018-09-17T10:49:32.632Z,97.80
2018-09-17T10:50:36.758Z,97.90
2018-09-17T10:51:40.865Z,97.80
2018-09-17T10:52:45.168Z,97.60
2018-09-17T10:53:49.367Z,97.40
2018-09-17T10:54:53.654Z,98.00
2018-09-17T10:55:58.122Z,97.60
2018-09-17T10:57:02.490Z,97.50
2018-09-17T10:58:06.749Z,97.60
2018-09-17T10:59:10.949Z,97.50
2018-09-17T11:00:15.403Z,96.90
2018-09-17T11:01:19.996Z,96.00
2018-09-17T11:02:24.260Z,96.20
2018-09-17T11:03:28.457Z,96.10
2018-09-17T11:04:32.623Z,96.00
2018-09-17T11:05:36.741Z,96.00
2018-09-17T11:06:41.033Z,95.50
2018-09-17T11:07:45.516Z,95.20
2018-09-17T11:08:49.919Z,95.10
2018-09-17T11:09:54.467Z,95.00
2018-09-17T11:10:58.828Z,95.20
2018-09-17T11:12:03.052Z,95.30
2018-09-17T11:13:07.282Z,95.40
2018-09-17T11:14:11.741Z,95.30
2018-09-17T11:15:15.925Z,95.40
2018-09-17T11:16:20.293Z,95.50
2018-09-17T11:17:25.087Z,95.30
2018-09-17T11:18:29.361Z,95.10
2018-09-17T11:19:34.024Z,95.00
2018-09-17T11:20:38.474Z,94.80
2018-09-17T11:21:43.019Z,94.60
2018-09-17T11:22:47.145Z,94.70
2018-09-17T11:23:51.531Z,94.70
2018-09-17T11:24:56.050Z,94.60
2018-09-17T11:26:00.277Z,94.90
2018-09-17T11:27:04.489Z,94.90
2018-09-17T11:28:08.607Z,94.80
2018-09-17T11:29:12.695Z,94.80
2018-09-17T11:30:17.048Z,94.70
2018-09-17T11:31:21.824Z,94.70
2018-09-17T11:32:25.979Z,94.40
2018-09-17T11:33:30.236Z,94.60
2018-09-17T11:34:34.438Z,94.00
2018-09-17T11:35:38.882Z,93.70
2018-09-17T11:36:43.519Z,93.70
2018-09-17T11:37:48.181Z,93.50
2018-09-17T11:38:52.262Z,93.50
2018-09-17T11:39:56.767Z,93.70
2018-09-17T11:41:01.232Z,93.40
2018-09-17T11:42:05.345Z,93.50
2018-09-17T11:43:09.793Z,93.40
2018-09-17T11:44:14.032Z,93.00
2018-09-17T11:45:18.509Z,93.00
2018-09-17T11:46:22.774Z,92.50
2018-09-17T11:47:27.030Z,92.60
2018-09-17T11:48:31.305Z,92.70
2018-09-17T11:49:35.553Z,93.00
2018-09-17T11:50:39.749Z,93.20
2018-09-17T11:51:44.010Z,93.10
2018-09-17T11:52:48.200Z,93.30
2018-09-17T11:53:52.407Z,93.40
2018-09-17T11:54:56.497Z,92.90
2018-09-17T11:56:01.101Z,92.50
2018-09-17T11:57:05.555Z,92.40
2018-09-17T11:58:09.801Z,92.40
2018-09-17T11:59:14.066Z,92.40
2018-09-17T12:00:23.653Z,92.70
2018-09-17T12:01:33.437Z,92.50
2018-09-17T12:02:38.278Z,92.50
2018-09-17T12:03:47.589Z,92.80
2018-09-17T12:04:57.215Z,93.00
2018-09-17T12:06:03.028Z,92.80
2018-09-17T12:07:12.502Z,92.70
2018-09-17T12:08:18.345Z,92.60
2018-09-17T12:09:22.898Z,93.00
2018-09-17T12:10:26.890Z,93.10
2018-09-17T12:11:31.681Z,93.10
2018-09-17T12:12:36.585Z,92.80
2018-09-17T12:13:40.697Z,92.10
2018-09-17T12:14:44.939Z,92.20
2018-09-17T12:15:49.355Z,92.10
2018-09-17T12:16:53.617Z,91.80
2018-09-17T12:17:57.752Z,91.90
2018-09-17T12:19:01.994Z,91.90
2018-09-17T12:20:06.311Z,92.30
2018-09-17T12:21:10.541Z,92.00
2018-09-17T12:22:14.953Z,91.80
2018-09-17T12:23:19.024Z,91.90
2018-09-17T12:24:23.327Z,91.80
2018-09-17T12:25:27.542Z,91.70
2018-09-17T12:26:32.023Z,92.00
2018-09-17T12:27:36.285Z,92.00
2018-09-17T12:28:40.459Z,92.30
2018-09-17T12:29:44.847Z,92.60
2018-09-17T12:30:49.303Z,93.00
2018-09-17T12:31:53.643Z,93.30
2018-09-17T12:32:58.133Z,93.30
2018-09-17T12:34:02.438Z,93.20
2018-09-17T12:35:06.575Z,92.90
2018-09-17T12:36:11.162Z,92.70
2018-09-17T12:37:15.688Z,92.70
2018-09-17T12:38:19.831Z,92.70
2018-09-17T12:39:24.067Z,92.50
2018-09-17T12:40:28.730Z,92.50
2018-09-17T12:41:33.050Z,92.70
2018-09-17T12:42:37.560Z,92.60
2018-09-17T12:43:41.838Z,92.40
2018-09-17T12:44:46.127Z,92.10
2018-09-17T12:45:50.839Z,92.50
2018-09-17T12:46:55.084Z,92.50
2018-09-17T12:47:59.360Z,92.80
2018-09-17T12:49:03.512Z,92.80
2018-09-17T12:50:07.719Z,93.10
2018-09-17T12:51:12.004Z,93.20
2018-09-17T12:52:16.346Z,93.20
2018-09-17T12:53:20.496Z,93.20
2018-09-17T12:54:24.810Z,93.10
2018-09-17T12:55:28.918Z,93.20
2018-09-17T12:56:33.212Z,93.10
2018-09-17T12:57:37.778Z,92.90
2018-09-17T12:58:42.138Z,92.70
2018-09-17T12:59:46.390Z,92.40
2018-09-17T13:00:50.621Z,92.10
2018-09-17T13:01:54.909Z,92.00
2018-09-17T13:02:59.308Z,92.00
2018-09-17T13:04:03.547Z,91.80
2018-09-17T13:05:08.015Z,91.70
2018-09-17T13:06:12.146Z,91.70
2018-09-17T13:07:17.861Z,91.70
2018-09-17T13:08:22.111Z,91.50
2018-09-17T13:09:26.443Z,91.40
2018-09-17T13:10:30.772Z,91.60
2018-09-17T13:11:34.986Z,91.50
2018-09-17T13:12:39.257Z,91.50
2018-09-17T13:13:43.633Z,91.40
2018-09-17T13:14:48.149Z,91.20
2018-09-17T13:15:52.374Z,91.00
2018-09-17T13:16:57.112Z,90.90
2018-09-17T13:18:01.365Z,90.80
2018-09-17T13:19:06.270Z,90.70
2018-09-17T13:20:10.561Z,90.80
2018-09-17T13:21:14.960Z,90.60
2018-09-17T13:22:19.186Z,90.50
2018-09-17T13:23:23.618Z,90.70
2018-09-17T13:24:27.941Z,90.50
2018-09-17T13:25:32.215Z,90.90
2018-09-17T13:26:37.725Z,91.30
2018-09-17T13:27:42.286Z,91.50
2018-09-17T13:28:46.634Z,91.80
2018-09-17T13:29:51.026Z,91.70
2018-09-17T13:30:55.369Z,91.70
2018-09-17T13:31:59.672Z,91.70
2018-09-17T13:33:04.101Z,92.00
2018-09-17T13:34:08.196Z,91.50
2018-09-17T13:35:12.567Z,91.40
2018-09-17T13:36:16.849Z,91.40
2018-09-17T13:37:21.083Z,91.00
2018-09-17T13:38:25.562Z,90.90
2018-09-17T13:39:30.106Z,90.50
2018-09-17T13:40:34.490Z,90.90
2018-09-17T13:41:38.984Z,90.80
2018-09-17T13:42:43.333Z,90.70
2018-09-17T13:43:47.575Z,90.80
2018-09-17T13:44:51.751Z,90.70
2018-09-17T13:45:55.976Z,90.50
2018-09-17T13:47:00.254Z,90.40
2018-09-17T13:48:04.518Z,90.10
2018-09-17T13:49:08.724Z,89.70
2018-09-17T13:50:13.071Z,88.90
2018-09-17T13:51:17.201Z,88.80
2018-09-17T13:52:21.746Z,88.20
2018-09-17T13:53:26.070Z,87.40
2018-09-17T13:54:30.360Z,87.30
2018-09-17T13:55:34.885Z,87.10
2018-09-17T13:56:39.326Z,86.40
2018-09-17T13:57:43.886Z,86.00
2018-09-17T13:58:48.146Z,85.70